createdAt,value
2022-08-05T00:02:27.675Z,5.25
2022-08-05T00:04:56.177Z,5.28
2022-08-05T00:07:58.864Z,5.22
2022-08-05T00:10:11.179Z,4.93
2022-08-05T00:12:48.547Z,5.18
2022-08-05T00:15:56.050Z,4.97
2022-08-05T00:18:21.654Z,5.25
2022-08-05T00:20:51.050Z,4.80
2022-08-05T00:23:44.231Z,4.70
2022-08-05T00:26:05.574Z,5.07
2022-08-05T00:28:32.935Z,5.05
2022-08-05T00:31:02.812Z,4.68
2022-08-05T00:34:55.263Z,4.43
2022-08-05T00:37:10.806Z,4.70
2022-08-05T00:39:05.949Z,4.95
2022-08-05T00:41:51.622Z,5.05
2022-08-05T00:44:23.320Z,5.03
2022-08-05T00:47:03.684Z,4.90
2022-08-05T00:49:32.815Z,5.10
2022-08-05T00:52:11.111Z,4.78
2022-08-05T00:54:38.936Z,4.88
2022-08-05T00:57:05.908Z,4.80
2022-08-05T00:59:44.399Z,5.30
2022-08-05T01:02:11.681Z,4.90
2022-08-05T01:04:38.481Z,5.00
2022-08-05T01:07:23.485Z,4.72
2022-08-05T01:09:56.635Z,4.78
2022-08-05T01:12:25.004Z,4.88
2022-08-05T01:15:04.033Z,4.80
2022-08-05T01:17:39.873Z,5.13
2022-08-05T01:20:28.770Z,5.50
2022-08-05T01:23:23.275Z,5.28
2022-08-05T01:26:38.056Z,4.60
2022-08-05T01:29:36.470Z,5.13
2022-08-05T01:32:12.145Z,5.15
2022-08-05T01:34:47.479Z,5.13
2022-08-05T01:37:25.396Z,4.90
2022-08-05T01:39:55.036Z,5.25
2022-08-05T01:42:27.858Z,5.05
2022-08-05T01:44:56.992Z,5.07
2022-08-05T01:47:38.960Z,5.03
2022-08-05T01:50:17.455Z,5.13
2022-08-05T01:52:50.005Z,4.82
2022-08-05T01:55:20.407Z,4.85
2022-08-05T01:58:11.344Z,4.90
2022-08-05T02:00:39.591Z,5.15
2022-08-05T02:03:24.459Z,5.30
2022-08-05T02:06:01.133Z,4.97
2022-08-05T02:08:31.653Z,4.80
2022-08-05T02:11:13.735Z,5.10
2022-08-05T02:13:55.109Z,4.88
2022-08-05T02:16:32.998Z,4.95
2022-08-05T02:19:14.029Z,4.82
2022-08-05T02:21:49.098Z,4.70
2022-08-05T02:24:23.342Z,4.63
2022-08-05T02:26:56.801Z,4.82
2022-08-05T02:29:58.883Z,5.05
2022-08-05T02:32:19.891Z,4.88
2022-08-05T02:34:54.892Z,4.93
2022-08-05T02:37:23.787Z,4.68
2022-08-05T02:39:52.931Z,4.72
2022-08-05T02:42:26.018Z,4.38
2022-08-05T02:44:57.026Z,4.95
2022-08-05T02:47:25.846Z,5.03
2022-08-05T02:50:13.815Z,5.28
2022-08-05T02:52:46.822Z,5.03
2022-08-05T02:55:14.358Z,4.80
2022-08-05T02:58:09.288Z,4.93
2022-08-05T03:00:35.066Z,4.60
2022-08-05T03:03:07.656Z,5.25
2022-08-05T03:06:54.188Z,4.70
2022-08-05T03:08:29.593Z,4.72
2022-08-05T03:13:51.768Z,5.00
2022-08-05T03:16:31.504Z,4.78
2022-08-05T03:18:59.457Z,5.20
2022-08-05T03:21:28.849Z,4.85
2022-08-05T03:24:00.783Z,4.93
2022-08-05T03:26:31.996Z,4.57
2022-08-05T03:29:00.157Z,4.50
2022-08-05T03:31:57.307Z,4.32
2022-08-05T03:34:15.916Z,4.68
2022-08-05T03:36:43.625Z,4.68
2022-08-05T03:39:19.819Z,4.78
2022-08-05T03:41:47.244Z,4.50
2022-08-05T03:44:19.649Z,4.60
2022-08-05T03:46:47.108Z,4.70
2022-08-05T03:49:15.641Z,4.60
2022-08-05T03:52:36.837Z,4.97
2022-08-05T03:56:05.580Z,4.82
2022-08-05T03:57:51.660Z,4.43
2022-08-05T04:02:58.005Z,4.93
2022-08-05T04:05:33.179Z,4.75
2022-08-05T04:08:03.594Z,4.72
2022-08-05T04:10:37.868Z,4.65
2022-08-05T04:13:08.420Z,5.13
2022-08-05T04:15:36.307Z,5.00
2022-08-05T04:18:09.726Z,5.00
2022-08-05T04:20:37.254Z,4.80
2022-08-05T04:23:04.175Z,4.70
2022-08-05T04:25:58.000Z,4.90
2022-08-05T04:28:19.108Z,5.10
2022-08-05T04:30:47.096Z,5.82
2022-08-05T04:33:15.644Z,5.40
2022-08-05T04:36:16.085Z,5.80
2022-08-05T04:38:39.724Z,4.68
2022-08-05T04:41:10.081Z,4.75
2022-08-05T04:43:38.064Z,4.95
2022-08-05T04:46:13.473Z,4.45
2022-08-05T04:48:54.809Z,4.63
2022-08-05T04:51:21.544Z,4.68
2022-08-05T04:53:49.896Z,4.63
2022-08-05T04:56:34.342Z,4.35
2022-08-05T04:59:21.479Z,4.20
2022-08-05T05:02:06.744Z,4.03
2022-08-05T05:04:38.303Z,4.38
2022-08-05T05:07:10.609Z,4.00
2022-08-05T05:09:38.114Z,4.10
2022-08-05T05:12:06.143Z,4.45
2022-08-05T05:14:33.305Z,3.80
2022-08-05T05:17:03.796Z,4.00
2022-08-05T05:19:37.296Z,3.95
2022-08-05T05:22:23.870Z,3.65
2022-08-05T05:24:58.704Z,4.07
2022-08-05T05:27:44.567Z,3.63
2022-08-05T05:30:15.471Z,3.70
2022-08-05T05:32:56.298Z,3.55
2022-08-05T05:35:23.301Z,3.42
2022-08-05T05:37:59.715Z,3.40
2022-08-05T05:40:29.080Z,3.47
2022-08-05T05:42:57.231Z,3.42
2022-08-05T05:45:24.754Z,3.65
2022-08-05T05:48:05.401Z,2.95
2022-08-05T05:50:41.119Z,3.20
2022-08-05T05:53:22.499Z,2.97
2022-08-05T05:55:51.851Z,3.22
2022-08-05T05:58:31.395Z,2.88
2022-08-05T06:01:12.415Z,2.50
2022-08-05T06:04:01.285Z,2.60
2022-08-05T06:06:27.743Z,2.67
2022-08-05T06:08:55.080Z,2.70
2022-08-05T06:11:22.279Z,2.60
2022-08-05T06:13:50.533Z,2.88
2022-08-05T06:16:28.359Z,2.70
2022-08-05T06:19:00.275Z,2.70
2022-08-05T06:21:35.711Z,2.70
2022-08-05T06:24:07.605Z,2.75
2022-08-05T06:26:36.927Z,2.67
2022-08-05T06:29:06.921Z,2.65
2022-08-05T06:31:50.780Z,2.63
2022-08-05T06:34:20.025Z,2.47
2022-08-05T06:39:27.853Z,2.55
2022-08-05T06:41:58.857Z,2.47
2022-08-05T06:44:26.113Z,2.70
2022-08-05T06:46:54.488Z,2.70
2022-08-05T06:50:00.713Z,2.45
2022-08-05T06:52:37.677Z,2.70
2022-08-05T06:54:55.234Z,2.30
2022-08-05T06:58:02.746Z,2.53
2022-08-05T07:00:09.905Z,2.70
2022-08-05T07:02:43.825Z,2.90
2022-08-05T07:05:18.539Z,2.97
2022-08-05T07:07:48.804Z,2.95
2022-08-05T07:10:16.482Z,2.90
2022-08-05T07:13:02.981Z,3.00
2022-08-05T07:16:01.847Z,2.70
2022-08-05T07:18:32.296Z,2.90
2022-08-05T07:21:04.736Z,3.00
2022-08-05T07:23:32.547Z,3.00
2022-08-05T07:25:59.460Z,3.22
2022-08-05T07:28:26.497Z,3.10
2022-08-05T07:30:55.129Z,2.90
2022-08-05T07:33:37.168Z,3.13
2022-08-05T07:36:20.916Z,3.10
2022-08-05T07:38:49.057Z,3.22
2022-08-05T07:42:08.518Z,2.90
2022-08-05T07:44:14.166Z,3.10
2022-08-05T07:46:45.931Z,3.13
2022-08-05T07:49:15.117Z,3.15
2022-08-05T07:51:53.841Z,3.50
2022-08-05T07:54:31.767Z,3.30
2022-08-05T07:57:18.193Z,3.13
2022-08-05T07:59:49.490Z,3.17
2022-08-05T08:02:17.817Z,3.25
2022-08-05T08:04:49.374Z,3.10
2022-08-05T08:07:18.398Z,3.30
2022-08-05T08:09:52.277Z,3.42
2022-08-05T08:12:35.331Z,3.22
2022-08-05T08:15:09.632Z,3.38
2022-08-05T08:17:46.169Z,3.33
2022-08-05T08:20:59.790Z,3.25
2022-08-05T08:24:00.387Z,3.00
2022-08-05T08:25:59.140Z,3.22
2022-08-05T08:28:37.215Z,3.15
2022-08-05T08:31:09.708Z,3.25
2022-08-05T08:33:41.831Z,3.25
2022-08-05T08:36:38.127Z,3.67
2022-08-05T08:38:57.681Z,3.65
2022-08-05T08:41:51.842Z,3.58
2022-08-05T08:45:25.033Z,3.80
2022-08-05T08:47:21.801Z,3.67
2022-08-05T08:50:13.136Z,4.00
2022-08-05T08:52:56.790Z,3.60
2022-08-05T08:55:32.178Z,3.67
2022-08-05T08:58:12.898Z,3.47
2022-08-05T09:03:11.192Z,3.70
2022-08-05T09:06:07.754Z,3.88
2022-08-05T09:08:27.386Z,3.70
2022-08-05T09:10:57.451Z,3.80
2022-08-05T09:13:25.004Z,3.60
2022-08-05T09:15:58.784Z,3.53
2022-08-05T09:18:26.044Z,3.47
2022-08-05T09:20:52.800Z,3.63
2022-08-05T09:23:23.017Z,3.60
2022-08-05T09:26:11.533Z,3.90
2022-08-05T09:28:48.031Z,4.15
2022-08-05T09:32:38.594Z,3.60
2022-08-05T09:34:05.981Z,3.72
2022-08-05T09:36:55.350Z,3.63
2022-08-05T09:39:41.332Z,3.75
2022-08-05T09:42:23.486Z,3.83
2022-08-05T09:44:56.491Z,3.20
2022-08-05T09:47:26.120Z,3.40
2022-08-05T09:50:02.516Z,3.13
2022-08-05T09:52:32.516Z,2.90
2022-08-05T09:55:55.258Z,2.90
2022-08-05T09:57:54.649Z,3.35
2022-08-05T10:00:25.970Z,3.45
2022-08-05T10:02:58.333Z,3.65
2022-08-05T10:05:28.338Z,3.30
2022-08-05T10:08:35.353Z,3.42
2022-08-05T10:10:50.328Z,3.40
2022-08-05T10:13:49.187Z,3.30
2022-08-05T10:16:52.967Z,3.53
2022-08-05T10:19:23.521Z,3.35
2022-08-05T10:21:58.983Z,3.50
2022-08-05T10:24:27.168Z,3.40
2022-08-05T10:26:56.266Z,3.42
2022-08-05T10:30:07.086Z,3.45
2022-08-05T10:32:54.149Z,3.22
2022-08-05T10:35:03.867Z,3.30
2022-08-05T10:37:37.544Z,3.22
2022-08-05T10:40:27.804Z,3.60
2022-08-05T10:43:00.486Z,3.25
2022-08-05T10:45:40.408Z,3.40
2022-08-05T10:48:56.535Z,3.30
2022-08-05T10:51:28.380Z,3.45
2022-08-05T10:53:58.359Z,3.58
2022-08-05T10:56:29.896Z,3.35
2022-08-05T10:59:07.310Z,3.20
2022-08-05T11:01:53.997Z,2.92
2022-08-05T11:04:26.343Z,3.50
2022-08-05T11:07:04.541Z,3.47
2022-08-05T11:10:09.740Z,3.40
2022-08-05T11:12:38.268Z,3.50
2022-08-05T11:15:20.068Z,3.20
2022-08-05T11:17:59.923Z,3.30
2022-08-05T11:20:41.699Z,3.00
2022-08-05T11:24:03.287Z,3.20
2022-08-05T11:26:28.690Z,3.00
2022-08-05T11:29:06.811Z,3.15
2022-08-05T11:31:57.742Z,3.28
2022-08-05T11:34:51.303Z,3.50
2022-08-05T11:38:28.065Z,3.33
2022-08-05T11:41:14.169Z,3.10
2022-08-05T11:44:04.551Z,3.10
2022-08-05T11:46:36.034Z,3.40
2022-08-05T11:49:06.119Z,3.20
2022-08-05T11:51:44.161Z,3.00
2022-08-05T11:54:32.689Z,3.40
2022-08-05T11:57:08.338Z,3.42
2022-08-05T11:59:50.832Z,3.15
2022-08-05T12:02:23.864Z,2.78
2022-08-05T12:04:59.683Z,3.40
2022-08-05T12:08:10.443Z,3.28
2022-08-05T12:10:19.544Z,3.30
2022-08-05T12:12:55.387Z,3.20
2022-08-05T12:15:37.834Z,3.40
2022-08-05T12:18:11.001Z,3.00
2022-08-05T12:20:39.426Z,3.25
2022-08-05T12:23:09.616Z,3.35
2022-08-05T12:25:56.803Z,3.10
2022-08-05T12:28:39.543Z,3.10
2022-08-05T12:31:06.575Z,3.20
2022-08-05T12:33:37.212Z,3.10
2022-08-05T12:36:09.707Z,3.50
2022-08-05T12:38:41.390Z,3.10
2022-08-05T12:41:16.116Z,3.20
2022-08-05T12:44:14.164Z,3.00
2022-08-05T12:46:45.481Z,3.38
2022-08-05T12:49:14.511Z,3.08
2022-08-05T12:52:12.981Z,3.15
2022-08-05T12:54:35.474Z,3.67
2022-08-05T12:57:09.685Z,3.30
2022-08-05T13:01:58.539Z,3.25
2022-08-05T13:02:39.953Z,3.40
2022-08-05T13:05:08.214Z,4.32
2022-08-05T13:07:59.558Z,3.30
2022-08-05T13:10:27.010Z,3.20
2022-08-05T13:12:57.885Z,3.15
2022-08-05T13:15:41.607Z,3.30
2022-08-05T13:18:20.093Z,3.22
2022-08-05T13:20:49.324Z,3.28
2022-08-05T13:23:18.083Z,3.22
2022-08-05T13:25:52.487Z,3.50
2022-08-05T13:28:27.071Z,3.17
2022-08-05T13:30:53.960Z,3.28
2022-08-05T13:34:22.398Z,3.40
2022-08-05T13:36:09.416Z,3.35
2022-08-05T13:38:42.552Z,3.72
2022-08-05T13:41:11.277Z,3.42
2022-08-05T13:43:44.651Z,3.42
2022-08-05T13:46:37.715Z,3.45
2022-08-05T13:49:11.994Z,3.50
2022-08-05T13:51:40.960Z,3.28
2022-08-05T13:54:12.519Z,3.33
2022-08-05T13:56:45.262Z,3.40
2022-08-05T13:59:24.408Z,3.10
2022-08-05T14:01:58.792Z,3.38
2022-08-05T14:04:51.322Z,3.40
2022-08-05T14:07:55.653Z,3.35
2022-08-05T14:10:13.266Z,3.20
2022-08-05T14:12:42.957Z,3.40
2022-08-05T14:16:08.567Z,3.17
2022-08-05T14:18:03.885Z,3.58
2022-08-05T14:20:31.476Z,3.10
2022-08-05T14:22:59.532Z,3.30
2022-08-05T14:25:28.030Z,3.30
2022-08-05T14:27:55.841Z,3.45
2022-08-05T14:30:23.011Z,3.50
2022-08-05T14:32:53.410Z,3.10
2022-08-05T14:35:20.810Z,3.33
2022-08-05T14:37:53.530Z,3.08
2022-08-05T14:40:24.357Z,3.33
2022-08-05T14:42:51.953Z,3.57
2022-08-05T14:45:19.035Z,3.05
2022-08-05T14:48:02.993Z,3.35
2022-08-05T14:50:33.327Z,3.28
2022-08-05T14:53:06.905Z,3.10
2022-08-05T14:55:39.162Z,3.30
2022-08-05T14:58:11.656Z,3.30
2022-08-05T15:00:58.813Z,3.40
2022-08-05T15:03:33.306Z,3.70
2022-08-05T15:06:07.818Z,3.40
2022-08-05T15:09:01.542Z,3.40
2022-08-05T15:11:52.884Z,3.40
2022-08-05T15:14:34.222Z,3.50
2022-08-05T15:17:01.888Z,3.30
2022-08-05T15:19:31.179Z,3.25
2022-08-05T15:22:01.210Z,3.30
2022-08-05T15:24:28.992Z,3.47
2022-08-05T15:26:56.963Z,3.47
2022-08-05T15:29:30.115Z,3.42
2022-08-05T15:32:03.022Z,3.50
2022-08-05T15:34:32.210Z,3.30
2022-08-05T15:41:01.608Z,3.42
2022-08-05T15:42:28.685Z,3.72
2022-08-05T15:45:09.722Z,3.60
2022-08-05T15:47:37.332Z,3.67
2022-08-05T15:50:07.336Z,3.90
2022-08-05T15:52:54.569Z,3.83
2022-08-05T15:55:25.148Z,3.60
2022-08-05T15:58:08.962Z,3.83
2022-08-05T16:01:03.577Z,4.00
2022-08-05T16:03:22.917Z,3.40
2022-08-05T16:05:52.706Z,3.58
2022-08-05T16:08:22.589Z,4.40
2022-08-05T16:10:51.957Z,3.73
2022-08-05T16:13:23.730Z,4.07
2022-08-05T16:15:58.564Z,4.15
2022-08-05T16:18:29.120Z,4.10
2022-08-05T16:20:56.018Z,3.58
2022-08-05T16:23:22.887Z,3.90
2022-08-05T16:25:49.905Z,3.90
2022-08-05T16:28:24.184Z,3.90
2022-08-05T16:30:52.105Z,3.67
2022-08-05T16:33:19.698Z,3.80
2022-08-05T16:35:51.134Z,4.55
2022-08-05T16:38:25.229Z,3.72
2022-08-05T16:40:59.891Z,4.13
2022-08-05T16:43:30.332Z,3.35
2022-08-05T16:46:06.099Z,3.60
2022-08-05T16:48:36.218Z,4.13
2022-08-05T16:51:08.811Z,3.63
2022-08-05T16:54:04.365Z,3.90
2022-08-05T17:00:37.909Z,3.60
2022-08-05T17:03:35.911Z,3.67
2022-08-05T17:06:26.998Z,3.50
2022-08-05T17:08:54.563Z,3.47
2022-08-05T17:12:00.408Z,3.50
2022-08-05T17:14:37.677Z,3.80
2022-08-05T17:17:14.220Z,3.40
2022-08-05T17:19:45.408Z,3.53
2022-08-05T17:22:24.713Z,3.40
2022-08-05T17:24:57.662Z,3.65
2022-08-05T17:27:33.527Z,4.88
2022-08-05T17:30:02.787Z,6.45
2022-08-05T17:32:30.516Z,6.22
2022-08-05T17:35:01.032Z,5.72
2022-08-05T17:37:41.943Z,4.68
2022-08-05T17:40:15.219Z,4.60
2022-08-05T17:42:50.911Z,4.43
2022-08-05T17:45:25.000Z,4.32
2022-08-05T17:47:56.817Z,4.20
2022-08-05T17:50:30.396Z,3.90
2022-08-05T17:53:02.669Z,4.40
2022-08-05T17:55:37.570Z,4.25
2022-08-05T17:58:12.234Z,4.28
2022-08-05T18:00:47.072Z,4.50
2022-08-05T18:03:48.558Z,4.50
2022-08-05T18:06:11.377Z,4.20
2022-08-05T18:08:38.732Z,4.32
2022-08-05T18:11:11.473Z,4.50
2022-08-05T18:13:51.967Z,4.50
2022-08-05T18:16:20.581Z,5.20
2022-08-05T18:18:48.586Z,4.85
2022-08-05T18:21:21.122Z,4.93
2022-08-05T18:23:50.015Z,4.68
2022-08-05T18:26:22.016Z,4.95
2022-08-05T18:28:55.178Z,5.20
2022-08-05T18:31:23.728Z,5.03
2022-08-05T18:33:51.825Z,4.90
2022-08-05T18:36:19.350Z,4.70
2022-08-05T18:38:46.579Z,5.18
2022-08-05T18:41:58.477Z,5.03
2022-08-05T18:44:06.419Z,4.90
2022-08-05T18:46:34.857Z,5.03
2022-08-05T18:49:22.953Z,4.97
2022-08-05T18:52:16.212Z,5.07
2022-08-05T18:54:45.840Z,5.07
2022-08-05T18:57:15.403Z,5.32
2022-08-05T19:00:01.452Z,5.30
2022-08-05T19:02:29.704Z,5.70
2022-08-05T19:05:02.814Z,6.05
2022-08-05T19:07:48.049Z,7.28
2022-08-05T19:10:26.628Z,6.18
2022-08-05T19:12:56.543Z,5.57
2022-08-05T19:15:56.905Z,4.95
2022-08-05T19:18:20.691Z,4.50
2022-08-05T19:20:49.387Z,4.30
2022-08-05T19:24:04.372Z,3.38
2022-08-05T19:26:03.539Z,3.47
2022-08-05T19:28:33.008Z,3.17
2022-08-05T19:31:00.410Z,3.80
2022-08-05T19:33:35.992Z,4.28
2022-08-05T19:36:06.277Z,3.70
2022-08-05T19:38:36.940Z,4.40
2022-08-05T19:41:06.786Z,4.03
2022-08-05T19:44:06.730Z,4.40
2022-08-05T19:46:30.160Z,4.20
2022-08-05T19:49:00.862Z,3.95
2022-08-05T19:52:06.181Z,4.40
2022-08-05T19:54:21.602Z,4.53
2022-08-05T19:57:06.451Z,4.95
2022-08-05T19:59:54.799Z,5.30
2022-08-05T20:02:27.025Z,5.57
2022-08-05T20:04:58.544Z,5.68
2022-08-05T20:07:38.992Z,5.60
2022-08-05T20:10:16.291Z,5.20
2022-08-05T20:12:46.188Z,6.15
2022-08-05T20:15:48.663Z,6.28
2022-08-05T20:18:10.075Z,6.28
2022-08-05T20:20:55.258Z,6.00
2022-08-05T20:23:39.225Z,6.28
2022-08-05T20:26:15.935Z,6.03
2022-08-05T20:28:45.778Z,6.78
2022-08-05T20:31:13.040Z,6.45
2022-08-05T20:33:42.355Z,5.93
2022-08-05T20:36:11.073Z,5.90
2022-08-05T20:38:40.848Z,5.97
2022-08-05T20:41:26.696Z,6.25
2022-08-05T20:43:58.811Z,6.03
2022-08-05T20:46:28.541Z,5.75
2022-08-05T20:48:55.506Z,6.55
2022-08-05T20:51:22.603Z,5.40
2022-08-05T20:53:56.282Z,6.72
2022-08-05T20:56:28.685Z,7.38
2022-08-05T20:59:00.120Z,7.68
2022-08-05T21:01:40.799Z,6.53
2022-08-05T21:04:10.598Z,6.68
2022-08-05T21:06:45.337Z,6.63
2022-08-05T21:09:14.631Z,6.32
2022-08-05T21:12:10.961Z,5.60
2022-08-05T21:14:34.755Z,5.30
2022-08-05T21:17:04.908Z,5.40
2022-08-05T21:22:17.661Z,4.90
2022-08-05T21:24:48.979Z,5.80
2022-08-05T21:27:20.599Z,5.20
2022-08-05T21:29:51.839Z,4.93
2022-08-05T21:32:20.389Z,5.90
2022-08-05T21:35:06.794Z,6.15
2022-08-05T21:37:35.090Z,5.43
2022-08-05T21:40:13.769Z,6.45
2022-08-05T21:42:44.910Z,4.70
2022-08-05T21:45:24.267Z,4.43
2022-08-05T21:47:56.526Z,4.15
2022-08-05T21:50:25.771Z,4.13
2022-08-05T21:52:52.983Z,5.10
2022-08-05T21:56:00.927Z,4.68
2022-08-05T21:58:11.701Z,4.82
2022-08-05T22:00:40.179Z,5.38
2022-08-05T22:03:09.891Z,5.70
2022-08-05T22:05:48.988Z,5.50
2022-08-05T22:08:26.379Z,4.78
2022-08-05T22:10:53.631Z,4.97
2022-08-05T22:14:34.175Z,5.40
2022-08-05T22:16:26.040Z,4.50
2022-08-05T22:18:58.472Z,5.28
2022-08-05T22:21:25.914Z,5.47
2022-08-05T23:20:17.416Z,6.07
2022-08-05T23:22:48.260Z,6.20
2022-08-05T23:25:54.661Z,5.63
2022-08-05T23:28:07.197Z,5.65
2022-08-05T23:30:40.489Z,5.65
2022-08-05T23:33:16.246Z,5.15
2022-08-05T23:35:50.681Z,5.38
2022-08-05T23:38:18.249Z,4.82
2022-08-05T23:40:49.746Z,4.72
2022-08-05T23:43:25.010Z,4.30
2022-08-05T23:46:20.540Z,4.45
2022-08-05T23:48:59.195Z,4.03
2022-08-05T23:51:53.474Z,3.90
2022-08-05T23:54:36.547Z,3.47
2022-08-05T23:57:06.121Z,3.60
